createdAt,value
2022-12-25T00:02:02.437Z,100697.56
2022-12-25T00:17:07.879Z,100701.50
2022-12-25T00:32:12.658Z,100713.86
2022-12-25T00:47:30.646Z,100721.41
2022-12-25T01:02:48.461Z,100739.78
2022-12-25T01:17:53.100Z,100749.63
2022-12-25T01:32:57.395Z,100754.67
2022-12-25T01:48:07.122Z,100761.04
2022-12-25T02:03:26.038Z,100768.29
2022-12-25T02:19:09.003Z,100786.05
2022-12-25T02:35:01.101Z,100795.46
2022-12-25T02:50:27.259Z,100785.08
2022-12-25T03:05:54.520Z,100788.16
2022-12-25T03:21:18.222Z,100803.94
2022-12-25T03:37:10.998Z,100811.02
2022-12-25T03:52:38.886Z,100817.33
2022-12-25T04:08:15.986Z,100821.60
2022-12-25T04:23:52.228Z,100828.81
2022-12-25T04:38:56.566Z,100845.52
2022-12-25T04:54:00.626Z,100858.92
2022-12-25T05:09:05.559Z,100871.63
2022-12-25T05:24:27.999Z,100876.58
2022-12-25T05:39:32.206Z,100876.95
2022-12-25T06:09:54.183Z,100936.14
2022-12-25T06:24:58.627Z,100957.85
2022-12-25T06:40:02.997Z,100979.20
2022-12-25T06:55:20.649Z,101008.27
2022-12-25T07:10:25.663Z,101006.25
2022-12-25T07:25:43.388Z,101015.12
2022-12-25T07:41:01.588Z,101007.67
2022-12-25T07:56:19.474Z,101005.98
2022-12-25T08:11:23.993Z,101021.38
2022-12-25T08:26:28.185Z,101024.85
2022-12-25T08:41:33.217Z,101043.47
2022-12-25T08:56:51.065Z,101063.41
2022-12-25T09:11:55.971Z,101082.70
2022-12-25T09:26:59.936Z,101075.98
2022-12-25T09:42:29.462Z,101088.90
2022-12-25T09:57:34.141Z,101095.09
2022-12-25T10:13:11.848Z,101097.17
2022-12-25T10:28:45.051Z,101080.98
2022-12-25T10:43:55.403Z,101069.54
2022-12-25T11:14:30.817Z,101055.85
2022-12-25T11:29:48.365Z,101060.80
2022-12-25T12:00:35.824Z,101066.38
2022-12-25T12:15:47.403Z,101055.73
2022-12-25T12:31:10.608Z,101042.22
2022-12-25T12:46:48.818Z,101041.73
2022-12-25T13:02:25.564Z,101034.23
2022-12-25T13:17:46.946Z,101005.87
2022-12-25T13:33:04.766Z,101008.28
2022-12-25T13:48:16.636Z,101008.30
2022-12-25T14:03:39.833Z,101004.70
2022-12-25T14:19:00.778Z,100973.84
2022-12-25T14:34:10.351Z,100994.50
2022-12-25T15:04:44.422Z,100999.48
2022-12-25T15:19:49.182Z,100982.64
2022-12-25T15:34:54.095Z,100955.19
2022-12-25T15:49:58.702Z,100974.96
2022-12-25T16:05:16.574Z,100978.72
2022-12-25T16:20:34.862Z,100962.24
2022-12-25T16:35:39.253Z,100961.15
2022-12-25T16:50:44.301Z,100945.24
2022-12-25T17:05:48.762Z,100929.02
2022-12-25T17:20:54.218Z,100900.26
2022-12-25T17:36:08.244Z,100885.73
2022-12-25T17:51:29.437Z,100861.30
2022-12-25T18:06:36.535Z,100853.86
2022-12-25T18:21:40.468Z,100825.22
2022-12-25T18:37:03.223Z,100813.89
2022-12-25T18:52:47.503Z,100788.87
2022-12-25T19:07:45.175Z,100758.65
2022-12-25T19:38:21.542Z,100706.02
2022-12-25T19:53:26.617Z,100669.30
2022-12-25T20:08:31.299Z,100639.95
2022-12-25T20:23:35.650Z,100634.36
2022-12-25T20:54:25.239Z,100573.27
2022-12-25T21:09:29.415Z,100585.71
2022-12-25T21:24:33.440Z,100584.67
2022-12-25T21:39:52.052Z,100572.95
2022-12-25T21:54:56.409Z,100566.40
2022-12-25T22:25:20.339Z,100486.46
2022-12-25T22:40:24.595Z,100455.52
2022-12-25T22:55:28.839Z,100448.40
2022-12-25T23:10:32.660Z,100440.06
2022-12-25T23:25:55.393Z,100426.05
2022-12-25T23:40:59.914Z,100405.34
2022-12-25T23:56:05.094Z,100374.14
